Morristown, AZ

8:25 AM MST on July 04, 2015 (GMT -0700)
APRSWXNET | | Change Station
CLOSE
Current Station
Personal Weather Station
Location: Morristown, AZ
Elevation: 1998 ft
Nearby Weather Stations

Elev 1998 ft 33.85 °N, 112.60 °W | Updated 21 minutes ago

Partly Cloudy
Partly Cloudy
90 °F
Feels Like 90 °F
N
0
Wind Variable Wind from North
Gusts 0.0 mph

Today
High -- | Low -- °F
--% Chance of Precip.
Yesterday
High -- | Low -- °F
Precip. -- in
5:24 AM 7:45 PM
Waning Gibbous, 92% visible
Pressure 29.75 in
Visibility 10.0 miles
Clouds Clear
Heat Index 90 °F
Dew Point 61 °F
Humidity 38%
Rainfall in
Snow Depth Not available.
UV 3 out of 12
Pollen 4.20 out of 12
Air Quality Not available.
Flu Activity Not available.
METAR KLUF 041458Z AUTO 02003KT 10SM CLR 32/17 A2980 RMK AO2 SLP075 52021

More Conditions Fewer Conditions

Pressure 29.75 in
Visibility 10.0 miles
Clouds Clear
Heat Index 90 °F
Dew Point 61 °F
Humidity 38%
Rainfall in
Snow Depth Not available.
UV 3 out of 12
Pollen 4.20 out of 12
Air Quality Not available.
Flu Activity Not available.
METAR KLUF 041458Z AUTO 02003KT 10SM CLR 32/17 A2980 RMK AO2 SLP075 52021

More Conditions Fewer Conditions

10-Day Weather Forecast

×

Almanac

Astronomy

Jul. 04, 2015 Rise Set
Actual Time
Civil Twilight
Nautical Twilight
Astronomical Twilight
Moon
Length of Visible Light
Length of Day
Tomorrow will be .
, % of the Moon is Illuminated

Today's Extremes

State Highs State Lows

Community

WunderPhotos

Upload Photos

1,834,986 photos uploaded!

WunderBlogs® & News

Nearby

Air Quality

  Air Quality AQ Index Pollutant
Not available.

Snow Depth

Station Depth Elevation

Earthquake Activity

City Distance Mag. Time & Date
Minimum magnitude displayed is 2.5.

Coastal Water Temperatures

Place Temperature

Stations

Nearby Weather Stations

Station Location Temp. Windchill Dew Point Humidity Wind Precip. Elev Updated Type